createdAt,value
2023-02-09T00:03:42.030Z,-4.46
2023-02-09T00:07:42.332Z,-4.48
2023-02-09T00:11:57.993Z,-4.58
2023-02-09T00:16:02.043Z,-4.53
2023-02-09T00:20:02.294Z,-4.44
2023-02-09T00:24:03.058Z,-4.33
2023-02-09T00:28:05.943Z,-4.58
2023-02-09T00:32:06.251Z,-4.32
2023-02-09T00:36:09.234Z,-4.86
2023-02-09T00:40:10.847Z,-4.57
2023-02-09T00:44:14.727Z,-4.68
2023-02-09T00:48:14.809Z,-4.56
2023-02-09T00:52:14.854Z,-4.78
2023-02-09T00:56:14.961Z,-4.92
2023-02-09T01:00:20.568Z,-5.08
2023-02-09T01:04:20.808Z,-5.15
2023-02-09T01:08:20.884Z,-5.14
2023-02-09T01:12:20.964Z,-5.12
2023-02-09T01:16:24.158Z,-5.27
2023-02-09T01:20:24.371Z,-5.17
2023-02-09T01:24:24.578Z,-5.38
2023-02-09T01:28:24.702Z,-5.13
2023-02-09T01:32:27.602Z,-5.45
2023-02-09T01:36:29.188Z,-5.93
2023-02-09T01:40:29.265Z,-5.79
2023-02-09T01:45:20.904Z,-5.84
2023-02-09T01:49:29.062Z,-5.78
2023-02-09T01:53:30.997Z,-5.87
2023-02-09T01:57:35.578Z,-6.05
2023-02-09T02:01:35.879Z,-6.02
2023-02-09T02:05:45.337Z,-6.13
2023-02-09T02:09:46.029Z,-6.15
2023-02-09T02:13:46.311Z,-5.95
2023-02-09T02:18:10.897Z,-6.07
2023-02-09T02:22:54.200Z,-6.09
2023-02-09T02:27:02.217Z,-6.21
2023-02-09T02:31:44.914Z,-6.04
2023-02-09T02:35:56.925Z,-6.12
2023-02-09T02:40:18.736Z,-6.52
2023-02-09T02:44:22.211Z,-6.30
2023-02-09T02:48:35.289Z,-6.49
2023-02-09T02:52:38.297Z,-6.60
2023-02-09T02:56:44.983Z,-6.66
2023-02-09T03:00:52.925Z,-6.90
2023-02-09T03:04:58.305Z,-6.61
2023-02-09T03:09:01.660Z,-6.51
2023-02-09T03:13:17.862Z,-6.66
2023-02-09T03:17:32.969Z,-6.71
2023-02-09T03:21:49.258Z,-6.75
2023-02-09T03:25:59.083Z,-7.12
2023-02-09T03:30:04.454Z,-6.90
2023-02-09T03:34:05.264Z,-6.82
2023-02-09T03:38:07.785Z,-6.79
2023-02-09T03:42:10.693Z,-7.05
2023-02-09T03:46:10.776Z,-7.07
2023-02-09T03:50:11.836Z,-6.54
2023-02-09T03:54:11.866Z,-6.52
2023-02-09T03:58:14.534Z,-6.59
2023-02-09T04:02:15.959Z,-7.01
2023-02-09T04:06:16.026Z,-6.99
2023-02-09T04:10:16.082Z,-6.77
2023-02-09T04:14:19.607Z,-6.90
2023-02-09T04:18:19.758Z,-6.85
2023-02-09T04:22:19.942Z,-7.00
2023-02-09T04:26:20.727Z,-7.03
2023-02-09T04:30:23.785Z,-7.06
2023-02-09T04:34:24.674Z,-7.10
2023-02-09T04:38:26.039Z,-7.19
2023-02-09T04:42:26.342Z,-7.24
2023-02-09T04:46:28.971Z,-7.28
2023-02-09T04:50:28.969Z,-7.25
2023-02-09T04:54:29.226Z,-7.26
2023-02-09T04:58:42.294Z,-7.50
2023-02-09T05:02:44.958Z,-7.43
2023-02-09T05:06:45.029Z,-7.28
2023-02-09T05:10:45.215Z,-7.43
2023-02-09T05:14:45.406Z,-7.50
2023-02-09T05:18:50.489Z,-7.36
2023-02-09T05:22:50.653Z,-7.29
2023-02-09T05:26:50.681Z,-7.28
2023-02-09T05:30:53.903Z,-7.15
2023-02-09T05:34:56.635Z,-7.28
2023-02-09T05:38:56.672Z,-7.36
2023-02-09T05:42:57.514Z,-7.11
2023-02-09T05:46:57.585Z,-7.14
2023-02-09T05:51:00.275Z,-7.18
2023-02-09T05:55:00.376Z,-6.98
2023-02-09T05:59:00.432Z,-7.25
2023-02-09T06:03:00.535Z,-6.96
2023-02-09T06:07:03.585Z,-6.50
2023-02-09T06:11:06.153Z,-6.16
2023-02-09T06:15:07.057Z,-6.15
2023-02-09T06:19:07.626Z,-5.87
2023-02-09T06:23:10.374Z,-6.61
2023-02-09T06:27:10.511Z,-6.07
2023-02-09T06:31:11.446Z,-6.25
2023-02-09T06:35:12.167Z,-6.57
2023-02-09T06:39:14.994Z,-6.67
2023-02-09T06:43:15.026Z,-6.84
2023-02-09T06:47:15.139Z,-6.89
2023-02-09T06:51:18.909Z,-6.77
2023-02-09T06:55:22.064Z,-6.68
2023-02-09T06:59:22.596Z,-6.91
2023-02-09T07:03:22.606Z,-7.04
2023-02-09T07:07:24.393Z,-6.67
2023-02-09T07:11:28.145Z,-6.51
2023-02-09T07:15:28.290Z,-6.20
2023-02-09T07:19:28.358Z,-6.01
2023-02-09T07:23:29.377Z,-5.39
2023-02-09T07:27:32.037Z,-4.95
2023-02-09T07:31:32.407Z,-4.79
2023-02-09T07:35:32.595Z,-4.14
2023-02-09T07:39:33.310Z,-3.62
2023-02-09T07:43:37.616Z,-3.40
2023-02-09T07:47:40.036Z,-3.26
2023-02-09T07:51:40.270Z,-2.73
2023-02-09T07:55:42.598Z,-2.36
2023-02-09T07:59:45.312Z,-2.12
2023-02-09T08:03:48.642Z,-1.71
2023-02-09T08:07:49.030Z,-1.68
2023-02-09T08:11:56.213Z,-1.14
2023-02-09T08:16:05.847Z,-0.98
2023-02-09T08:20:11.670Z,-0.61
2023-02-09T08:24:14.310Z,-0.33
2023-02-09T08:28:17.748Z,0.08
2023-02-09T08:32:24.994Z,0.25
2023-02-09T08:36:27.622Z,0.69
2023-02-09T08:40:27.838Z,0.57
2023-02-09T08:44:29.258Z,0.74
2023-02-09T08:48:37.455Z,1.04
2023-02-09T08:52:38.326Z,0.93
2023-02-09T08:56:39.429Z,1.49
2023-02-09T09:00:39.732Z,1.83
2023-02-09T09:04:42.524Z,2.07
2023-02-09T09:08:43.761Z,2.34
2023-02-09T09:12:45.018Z,2.12
2023-02-09T09:16:45.373Z,1.94
2023-02-09T09:20:48.276Z,1.89
2023-02-09T09:24:48.497Z,2.66
2023-02-09T09:53:19.941Z,1.76
2023-02-09T09:57:27.796Z,2.44
2023-02-09T10:01:31.133Z,2.51
2023-02-09T10:05:40.790Z,2.58
2023-02-09T10:09:55.151Z,2.92
2023-02-09T10:13:58.198Z,3.16
2023-02-09T10:18:02.057Z,3.43
2023-02-09T10:22:03.177Z,3.51
2023-02-09T10:26:27.779Z,4.02
2023-02-09T10:30:32.558Z,4.88
2023-02-09T10:34:44.378Z,5.16
2023-02-09T10:38:49.735Z,4.82
2023-02-09T10:43:12.857Z,4.79
2023-02-09T10:47:33.622Z,4.95
2023-02-09T10:51:37.943Z,5.42
2023-02-09T10:55:42.740Z,5.48
2023-02-09T10:59:44.882Z,5.50
2023-02-09T11:04:08.784Z,5.95
2023-02-09T11:08:27.583Z,6.04
2023-02-09T11:12:29.052Z,5.64
2023-02-09T11:17:19.046Z,5.99
2023-02-09T11:21:36.618Z,6.81
2023-02-09T11:25:47.614Z,6.94
2023-02-09T11:30:02.248Z,7.74
2023-02-09T11:34:15.469Z,7.36
2023-02-09T11:38:54.824Z,6.89
2023-02-09T11:43:39.998Z,6.82
2023-02-09T11:48:33.443Z,7.39
2023-02-09T12:03:09.731Z,9.39
2023-02-09T12:07:59.549Z,10.52
2023-02-09T12:12:31.890Z,10.50
2023-02-09T12:17:36.054Z,10.70
2023-02-09T12:44:58.630Z,14.03
2023-02-09T12:49:23.061Z,13.81
2023-02-09T12:53:50.224Z,13.62
2023-02-09T12:57:55.072Z,12.89
2023-02-09T13:02:32.511Z,13.07
2023-02-09T13:06:43.521Z,13.52
2023-02-09T13:10:52.385Z,14.16
2023-02-09T13:14:54.437Z,13.47
2023-02-09T13:19:16.837Z,13.91
2023-02-09T13:23:35.299Z,13.44
2023-02-09T13:27:36.294Z,13.56
2023-02-09T13:31:42.769Z,13.45
2023-02-09T13:36:16.288Z,13.58
2023-02-09T13:40:29.501Z,12.95
2023-02-09T13:44:32.926Z,12.91
2023-02-09T13:48:37.751Z,12.69
2023-02-09T13:52:40.955Z,11.53
2023-02-09T13:56:44.248Z,10.91
2023-02-09T14:00:50.282Z,10.40
2023-02-09T14:04:57.201Z,10.58
2023-02-09T14:09:05.196Z,11.51
2023-02-09T14:13:10.200Z,10.98
2023-02-09T14:17:24.979Z,10.45
2023-02-09T14:21:34.529Z,10.67
2023-02-09T14:26:07.454Z,10.48
2023-02-09T14:30:18.314Z,10.98
2023-02-09T14:35:26.328Z,10.03
2023-02-09T14:39:28.182Z,10.84
2023-02-09T14:43:31.690Z,11.43
2023-02-09T14:47:44.377Z,11.95
2023-02-09T14:51:46.037Z,12.49
2023-02-09T14:55:46.744Z,12.57
2023-02-09T14:59:50.570Z,12.54
2023-02-09T15:03:51.260Z,12.59
2023-02-09T15:07:57.285Z,12.68
2023-02-09T15:12:10.040Z,12.89
2023-02-09T15:16:14.794Z,12.57
2023-02-09T15:20:18.689Z,11.94
2023-02-09T15:24:21.580Z,10.70
2023-02-09T15:28:32.464Z,9.50
2023-02-09T15:32:35.500Z,9.46
2023-02-09T15:36:38.033Z,9.81
2023-02-09T15:41:00.238Z,9.41
2023-02-09T15:45:13.608Z,8.79
2023-02-09T15:49:17.087Z,9.12
2023-02-09T15:53:21.545Z,8.79
2023-02-09T15:57:22.458Z,8.42
2023-02-09T16:01:23.594Z,8.19
2023-02-09T16:05:31.573Z,7.29
2023-02-09T16:09:33.428Z,7.07
2023-02-09T16:13:33.766Z,6.64
2023-02-09T16:17:34.366Z,6.19
2023-02-09T16:21:37.751Z,5.57
2023-02-09T16:25:38.303Z,5.34
2023-02-09T16:29:39.060Z,5.02
2023-02-09T16:33:41.317Z,4.47
2023-02-09T16:37:46.585Z,4.15
2023-02-09T16:41:51.022Z,4.17
2023-02-09T16:46:03.291Z,3.92
2023-02-09T16:50:22.814Z,3.69
2023-02-09T16:54:26.248Z,3.60
2023-02-09T16:58:27.048Z,3.29
2023-02-09T17:02:40.170Z,3.14
2023-02-09T17:06:41.060Z,2.73
2023-02-09T17:10:44.688Z,2.76
2023-02-09T17:14:46.272Z,2.49
2023-02-09T17:18:49.586Z,2.37
2023-02-09T17:22:53.582Z,2.36
2023-02-09T17:26:56.958Z,2.29
2023-02-09T17:31:01.984Z,2.19
2023-02-09T17:35:02.968Z,2.13
2023-02-09T17:39:04.625Z,1.88
2023-02-09T17:43:08.808Z,1.76
2023-02-09T17:47:09.796Z,1.70
2023-02-09T17:51:17.444Z,1.40
2023-02-09T17:55:25.721Z,1.40
2023-02-09T17:59:29.902Z,1.39
2023-02-09T18:03:30.359Z,1.22
2023-02-09T18:07:31.161Z,1.23
2023-02-09T18:12:01.803Z,1.15
2023-02-09T18:16:06.099Z,1.14
2023-02-09T18:20:08.900Z,1.20
2023-02-09T18:24:10.787Z,1.06
2023-02-09T18:28:11.896Z,1.02
2023-02-09T18:32:21.214Z,0.93
2023-02-09T18:36:22.151Z,0.84
2023-02-09T18:40:23.266Z,0.81
2023-02-09T18:44:29.387Z,0.77
2023-02-09T18:48:32.836Z,0.74
2023-02-09T18:52:34.669Z,0.70
2023-02-09T18:56:35.032Z,0.74
2023-02-09T19:00:36.492Z,0.56
2023-02-09T19:04:42.760Z,0.51
2023-02-09T19:08:43.477Z,0.47
2023-02-09T19:12:45.670Z,0.39
2023-02-09T19:16:46.619Z,0.20
2023-02-09T19:20:49.921Z,0.02
2023-02-09T19:24:53.310Z,-0.01
2023-02-09T19:28:54.150Z,-0.05
2023-02-09T19:32:55.247Z,-0.17
2023-02-09T19:36:58.238Z,-0.05
2023-02-09T19:41:10.187Z,-0.06
2023-02-09T19:45:12.371Z,-0.10
2023-02-09T19:49:13.252Z,-0.26
2023-02-09T19:53:16.845Z,-0.16
2023-02-09T19:57:18.351Z,-0.17
2023-02-09T20:01:19.695Z,-0.11
2023-02-09T20:05:20.920Z,-0.19
2023-02-09T20:09:24.199Z,-0.18
2023-02-09T20:13:25.319Z,-0.31
2023-02-09T20:17:27.069Z,-0.47
2023-02-09T20:21:28.780Z,-0.58
2023-02-09T20:25:32.362Z,-0.66
2023-02-09T20:29:32.653Z,-0.82
2023-02-09T20:33:33.126Z,-0.71
2023-02-09T20:37:34.389Z,-0.80
2023-02-09T20:41:38.129Z,-0.99
2023-02-09T20:45:51.006Z,-1.09
2023-02-09T20:49:51.728Z,-1.36
2023-02-09T20:53:51.999Z,-1.46
2023-02-09T20:57:55.471Z,-1.32
2023-02-09T21:01:55.950Z,-1.31
2023-02-09T21:05:57.479Z,-1.32
2023-02-09T21:09:58.178Z,-1.39
2023-02-09T21:14:01.665Z,-1.37
2023-02-09T21:18:02.150Z,-1.42
2023-02-09T21:22:03.050Z,-1.46
2023-02-09T21:26:05.284Z,-1.63
2023-02-09T21:30:09.593Z,-1.78
2023-02-09T21:34:10.837Z,-1.59
2023-02-09T21:38:11.616Z,-1.75
2023-02-09T21:42:28.904Z,-1.72
2023-02-09T21:46:33.176Z,-1.86
2023-02-09T21:50:34.527Z,-1.82
2023-02-09T21:54:35.472Z,-1.93
2023-02-09T21:58:36.200Z,-1.98
2023-02-09T22:02:39.706Z,-1.91
2023-02-09T22:06:41.749Z,-1.83
2023-02-09T22:10:42.073Z,-1.82
2023-02-09T22:14:42.622Z,-1.91
2023-02-09T22:18:45.782Z,-1.98
2023-02-09T22:22:46.700Z,-1.91
2023-02-09T22:26:47.538Z,-1.98
2023-02-09T22:30:48.165Z,-2.00
2023-02-09T22:34:51.873Z,-1.98
2023-02-09T22:38:52.659Z,-1.96
2023-02-09T22:42:54.114Z,-2.12
2023-02-09T22:46:54.401Z,-2.26
2023-02-09T22:50:57.603Z,-2.28
2023-02-09T22:54:59.202Z,-2.20
2023-02-09T22:59:02.648Z,-2.30
2023-02-09T23:03:03.149Z,-2.52
2023-02-09T23:07:07.398Z,-2.45
2023-02-09T23:11:11.011Z,-2.56
2023-02-09T23:15:13.681Z,-2.70
2023-02-09T23:19:18.182Z,-2.67
2023-02-09T23:23:22.139Z,-2.84
2023-02-09T23:27:22.790Z,-2.88
2023-02-09T23:31:24.080Z,-2.99
2023-02-09T23:35:24.869Z,-3.03
2023-02-09T23:39:28.924Z,-3.07
2023-02-09T23:43:29.330Z,-3.06
2023-02-09T23:47:30.076Z,-3.10
2023-02-09T23:51:33.841Z,-3.17
2023-02-09T23:55:37.010Z,-3.24
2023-02-09T23:59:37.683Z,-3.15
